sensor_id;sensor_type;location;lat;lon;timestamp;pressure;altitude;pressure_sealevel;temperature;humidity
65175;BME280;51761;42.126;24.752;2023-05-22T00:00:34;99265.84;;;16.90;92.48
65175;BME280;51761;42.126;24.752;2023-05-22T00:03:01;99276.19;;;17.02;93.33
65175;BME280;51761;42.126;24.752;2023-05-22T00:05:27;99278.22;;;16.92;93.70
65175;BME280;51761;42.126;24.752;2023-05-22T00:07:54;99273.50;;;16.98;92.55
65175;BME280;51761;42.126;24.752;2023-05-22T00:10:20;99273.19;;;16.96;94.81
65175;BME280;51761;42.126;24.752;2023-05-22T00:12:45;99270.97;;;17.09;92.21
65175;BME280;51761;42.126;24.752;2023-05-22T00:15:11;99272.72;;;17.07;91.99
65175;BME280;51761;42.126;24.752;2023-05-22T00:17:36;99268.13;;;17.18;90.44
65175;BME280;51761;42.126;24.752;2023-05-22T00:20:03;99265.16;;;17.13;91.18
65175;BME280;51761;42.126;24.752;2023-05-22T00:22:31;99268.44;;;17.20;90.60
65175;BME280;51761;42.126;24.752;2023-05-22T00:25:03;99274.22;;;17.17;90.78
65175;BME280;51761;42.126;24.752;2023-05-22T00:27:29;99272.63;;;17.25;89.49
65175;BME280;51761;42.126;24.752;2023-05-22T00:29:55;99276.59;;;17.18;89.83
65175;BME280;51761;42.126;24.752;2023-05-22T00:32:20;99275.34;;;17.19;89.31
65175;BME280;51761;42.126;24.752;2023-05-22T00:34:46;99255.44;;;17.14;89.25
65175;BME280;51761;42.126;24.752;2023-05-22T00:37:11;99270.09;;;17.27;88.68
65175;BME280;51761;42.126;24.752;2023-05-22T00:39:37;99263.75;;;17.17;89.42
65175;BME280;51761;42.126;24.752;2023-05-22T00:42:03;99259.56;;;16.95;91.13
65175;BME280;51761;42.126;24.752;2023-05-22T00:44:28;99264.91;;;16.93;91.62
65175;BME280;51761;42.126;24.752;2023-05-22T00:46:54;99269.59;;;16.96;92.31
65175;BME280;51761;42.126;24.752;2023-05-22T00:49:21;99291.19;;;17.08;93.66
65175;BME280;51761;42.126;24.752;2023-05-22T00:51:47;99264.56;;;17.00;93.75
65175;BME280;51761;42.126;24.752;2023-05-22T00:54:13;99281.69;;;17.29;91.14
65175;BME280;51761;42.126;24.752;2023-05-22T00:56:40;99284.84;;;17.40;90.10
65175;BME280;51761;42.126;24.752;2023-05-22T00:59:06;99281.53;;;17.32;89.74
65175;BME280;51761;42.126;24.752;2023-05-22T01:01:32;99260.59;;;17.15;90.02
65175;BME280;51761;42.126;24.752;2023-05-22T01:04:02;99265.97;;;17.04;91.42
65175;BME280;51761;42.126;24.752;2023-05-22T01:06:29;99258.44;;;17.01;92.13
65175;BME280;51761;42.126;24.752;2023-05-22T01:08:56;99285.22;;;17.15;93.12
65175;BME280;51761;42.126;24.752;2023-05-22T01:11:30;99288.31;;;17.26;92.01
65175;BME280;51761;42.126;24.752;2023-05-22T01:14:04;99286.88;;;17.30;91.54
65175;BME280;51761;42.126;24.752;2023-05-22T01:16:58;99289.25;;;17.32;90.53
65175;BME280;51761;42.126;24.752;2023-05-22T01:25:06;99265.00;;;17.07;91.93
65175;BME280;51761;42.126;24.752;2023-05-22T01:30:34;99246.72;;;17.03;91.94
65175;BME280;51761;42.126;24.752;2023-05-22T01:33:02;99281.88;;;17.34;92.02
65175;BME280;51761;42.126;24.752;2023-05-22T01:35:29;99270.13;;;17.36;92.20
65175;BME280;51761;42.126;24.752;2023-05-22T01:37:57;99284.22;;;17.36;92.24
65175;BME280;51761;42.126;24.752;2023-05-22T01:40:22;99279.66;;;17.38;92.52
65175;BME280;51761;42.126;24.752;2023-05-22T01:42:49;99261.94;;;17.29;91.17
65175;BME280;51761;42.126;24.752;2023-05-22T01:45:16;99260.69;;;17.30;90.73
65175;BME280;51761;42.126;24.752;2023-05-22T01:47:41;99268.66;;;17.40;91.62
65175;BME280;51761;42.126;24.752;2023-05-22T01:50:07;99273.19;;;17.47;89.80
65175;BME280;51761;42.126;24.752;2023-05-22T01:55:29;99252.56;;;17.32;89.27
65175;BME280;51761;42.126;24.752;2023-05-22T02:00:44;99276.97;;;17.44;89.86
65175;BME280;51761;42.126;24.752;2023-05-22T02:03:15;99270.72;;;17.40;91.33
65175;BME280;51761;42.126;24.752;2023-05-22T02:05:44;99254.56;;;17.31;90.08
65175;BME280;51761;42.126;24.752;2023-05-22T02:08:13;99264.28;;;17.39;89.97
65175;BME280;51761;42.126;24.752;2023-05-22T02:10:39;99271.69;;;17.37;90.66
65175;BME280;51761;42.126;24.752;2023-05-22T02:13:07;99277.03;;;17.35;91.35
65175;BME280;51761;42.126;24.752;2023-05-22T02:15:32;99254.78;;;17.19;92.47
65175;BME280;51761;42.126;24.752;2023-05-22T02:17:59;99261.03;;;17.23;91.91
65175;BME280;51761;42.126;24.752;2023-05-22T02:20:25;99258.06;;;17.26;91.72
65175;BME280;51761;42.126;24.752;2023-05-22T02:22:51;99277.94;;;17.32;92.86
65175;BME280;51761;42.126;24.752;2023-05-22T02:25:16;99279.22;;;17.22;93.54
65175;BME280;51761;42.126;24.752;2023-05-22T02:27:43;99282.69;;;17.17;94.52
65175;BME280;51761;42.126;24.752;2023-05-22T02:30:10;99282.69;;;17.17;94.42
65175;BME280;51761;42.126;24.752;2023-05-22T02:32:37;99271.75;;;17.01;95.94
65175;BME280;51761;42.126;24.752;2023-05-22T02:35:03;99259.25;;;17.02;93.33
65175;BME280;51761;42.126;24.752;2023-05-22T02:37:29;99282.41;;;17.15;93.33
65175;BME280;51761;42.126;24.752;2023-05-22T02:39:55;99285.88;;;17.10;93.91
65175;BME280;51761;42.126;24.752;2023-05-22T02:42:21;99283.03;;;17.10;92.64
65175;BME280;51761;42.126;24.752;2023-05-22T02:44:47;99271.63;;;16.95;93.30
65175;BME280;51761;42.126;24.752;2023-05-22T02:47:12;99277.94;;;16.81;96.26
65175;BME280;51761;42.126;24.752;2023-05-22T02:49:38;99263.72;;;16.58;98.16
65175;BME280;51761;42.126;24.752;2023-05-22T02:52:03;99223.47;;;16.48;97.27
65175;BME280;51761;42.126;24.752;2023-05-22T02:54:29;99279.19;;;16.89;96.00
65175;BME280;51761;42.126;24.752;2023-05-22T02:56:55;99274.03;;;16.79;97.58
65175;BME280;51761;42.126;24.752;2023-05-22T02:59:21;99277.16;;;16.81;97.72
65175;BME280;51761;42.126;24.752;2023-05-22T03:01:46;99279.06;;;16.75;98.89
65175;BME280;51761;42.126;24.752;2023-05-22T03:04:13;99271.94;;;16.97;96.74
65175;BME280;51761;42.126;24.752;2023-05-22T03:06:39;99281.06;;;16.92;97.05
65175;BME280;51761;42.126;24.752;2023-05-22T03:09:05;99277.63;;;16.88;97.85
65175;BME280;51761;42.126;24.752;2023-05-22T03:11:32;99288.28;;;16.75;98.76
65175;BME280;51761;42.126;24.752;2023-05-22T03:13:58;99244.91;;;16.64;97.35
65175;BME280;51761;42.126;24.752;2023-05-22T03:16:24;99285.25;;;16.97;95.00
65175;BME280;51761;42.126;24.752;2023-05-22T03:18:53;99283.69;;;16.96;95.07
65175;BME280;51761;42.126;24.752;2023-05-22T03:21:18;99271.97;;;17.30;100.00
65175;BME280;51761;42.126;24.752;2023-05-22T03:23:44;99274.19;;;17.35;100.00
65175;BME280;51761;42.126;24.752;2023-05-22T03:26:11;99265.09;;;17.40;100.00
65175;BME280;51761;42.126;24.752;2023-05-22T03:28:36;99277.28;;;17.46;100.00
65175;BME280;51761;42.126;24.752;2023-05-22T03:31:02;99282.28;;;17.51;100.00
65175;BME280;51761;42.126;24.752;2023-05-22T03:33:27;99260.88;;;17.26;92.75
65175;BME280;51761;42.126;24.752;2023-05-22T03:35:53;99275.47;;;17.34;92.74
65175;BME280;51761;42.126;24.752;2023-05-22T03:38:18;99273.88;;;17.33;91.77
65175;BME280;51761;42.126;24.752;2023-05-22T03:40:44;99282.09;;;17.54;100.00
65175;BME280;51761;42.126;24.752;2023-05-22T03:43:09;99285.63;;;17.72;100.00
65175;BME280;51761;42.126;24.752;2023-05-22T03:45:35;99286.06;;;17.80;100.00
65175;BME280;51761;42.126;24.752;2023-05-22T03:48:00;99286.56;;;18.02;100.00
65175;BME280;51761;42.126;24.752;2023-05-22T03:50:26;99276.31;;;18.04;100.00
65175;BME280;51761;42.126;24.752;2023-05-22T03:52:51;99263.97;;;17.93;100.00
65175;BME280;51761;42.126;24.752;2023-05-22T03:55:17;99275.84;;;18.06;96.61
65175;BME280;51761;42.126;24.752;2023-05-22T03:57:42;99278.66;;;18.06;88.71
65175;BME280;51761;42.126;24.752;2023-05-22T04:00:08;99286.34;;;18.05;88.82
65175;BME280;51761;42.126;24.752;2023-05-22T04:02:34;99294.38;;;18.07;93.85
65175;BME280;51761;42.126;24.752;2023-05-22T04:05:05;99290.94;;;18.03;94.43
65175;BME280;51761;42.126;24.752;2023-05-22T04:07:31;99306.59;;;17.80;89.37
65175;BME280;51761;42.126;24.752;2023-05-22T04:09:56;99295.50;;;18.00;96.57
65175;BME280;51761;42.126;24.752;2023-05-22T04:12:22;99275.19;;;18.11;100.00
65175;BME280;51761;42.126;24.752;2023-05-22T04:14:47;99293.31;;;18.19;95.19
65175;BME280;51761;42.126;24.752;2023-05-22T04:17:13;99292.63;;;18.33;96.70
65175;BME280;51761;42.126;24.752;2023-05-22T04:19:38;99288.03;;;18.35;93.26
65175;BME280;51761;42.126;24.752;2023-05-22T04:22:04;99291.84;;;18.32;87.36
65175;BME280;51761;42.126;24.752;2023-05-22T04:24:29;99293.59;;;18.30;84.88
65175;BME280;51761;42.126;24.752;2023-05-22T04:26:55;99289.09;;;18.14;87.00
65175;BME280;51761;42.126;24.752;2023-05-22T04:29:24;99285.22;;;18.12;84.78
65175;BME280;51761;42.126;24.752;2023-05-22T04:31:49;99296.81;;;18.14;84.41
65175;BME280;51761;42.126;24.752;2023-05-22T04:34:18;99288.47;;;18.19;85.00
65175;BME280;51761;42.126;24.752;2023-05-22T04:36:44;99290.13;;;18.26;85.42
65175;BME280;51761;42.126;24.752;2023-05-22T04:39:10;99279.97;;;18.19;83.82
65175;BME280;51761;42.126;24.752;2023-05-22T04:41:37;99295.00;;;18.25;87.02
65175;BME280;51761;42.126;24.752;2023-05-22T04:44:03;99267.06;;;18.04;85.39
65175;BME280;51761;42.126;24.752;2023-05-22T04:46:28;99298.16;;;18.04;84.40
65175;BME280;51761;42.126;24.752;2023-05-22T04:48:54;99303.91;;;18.09;88.43
65175;BME280;51761;42.126;24.752;2023-05-22T04:51:19;99298.25;;;18.09;86.06
65175;BME280;51761;42.126;24.752;2023-05-22T04:53:47;99290.38;;;18.13;88.73
65175;BME280;51761;42.126;24.752;2023-05-22T04:56:16;99298.22;;;18.18;82.88
65175;BME280;51761;42.126;24.752;2023-05-22T04:58:41;99303.19;;;18.23;83.18
65175;BME280;51761;42.126;24.752;2023-05-22T05:01:06;99285.03;;;18.15;83.66
65175;BME280;51761;42.126;24.752;2023-05-22T05:03:33;99308.56;;;18.45;83.59
65175;BME280;51761;42.126;24.752;2023-05-22T05:05:59;99307.09;;;18.49;81.19
65175;BME280;51761;42.126;24.752;2023-05-22T05:08:24;99293.94;;;18.46;81.31
65175;BME280;51761;42.126;24.752;2023-05-22T05:10:50;99290.44;;;18.51;84.69
65175;BME280;51761;42.126;24.752;2023-05-22T05:13:16;99315.34;;;18.76;89.94
65175;BME280;51761;42.126;24.752;2023-05-22T05:15:41;99278.19;;;18.69;85.12
65175;BME280;51761;42.126;24.752;2023-05-22T05:18:07;99309.50;;;18.94;84.50
65175;BME280;51761;42.126;24.752;2023-05-22T05:20:32;99308.44;;;18.92;82.30
65175;BME280;51761;42.126;24.752;2023-05-22T05:22:58;99303.75;;;18.74;80.99
65175;BME280;51761;42.126;24.752;2023-05-22T05:25:23;99283.81;;;18.54;81.99
65175;BME280;51761;42.126;24.752;2023-05-22T05:27:49;99307.44;;;18.66;82.56
65175;BME280;51761;42.126;24.752;2023-05-22T05:30:14;99292.28;;;18.54;83.29
65175;BME280;51761;42.126;24.752;2023-05-22T05:32:40;99254.69;;;18.39;82.97
65175;BME280;51761;42.126;24.752;2023-05-22T05:35:06;99305.09;;;18.79;83.52
65175;BME280;51761;42.126;24.752;2023-05-22T05:37:32;99311.56;;;18.94;83.34
65175;BME280;51761;42.126;24.752;2023-05-22T05:39:57;99312.25;;;19.03;83.82
65175;BME280;51761;42.126;24.752;2023-05-22T05:42:23;99323.94;;;18.96;84.17
65175;BME280;51761;42.126;24.752;2023-05-22T05:44:48;99301.97;;;18.77;84.73
65175;BME280;51761;42.126;24.752;2023-05-22T05:47:14;99321.28;;;18.64;85.02
65175;BME280;51761;42.126;24.752;2023-05-22T05:49:39;99325.50;;;18.45;85.55
65175;BME280;51761;42.126;24.752;2023-05-22T05:52:05;99351.00;;;18.59;84.43
65175;BME280;51761;42.126;24.752;2023-05-22T05:54:32;99342.81;;;18.61;86.05
65175;BME280;51761;42.126;24.752;2023-05-22T05:56:57;99333.94;;;18.30;89.00
65175;BME280;51761;42.126;24.752;2023-05-22T05:59:23;99335.84;;;18.01;90.93
65175;BME280;51761;42.126;24.752;2023-05-22T06:01:48;99324.34;;;17.81;94.69
65175;BME280;51761;42.126;24.752;2023-05-22T06:04:14;99337.63;;;17.89;95.80
65175;BME280;51761;42.126;24.752;2023-05-22T06:06:40;99347.22;;;18.15;98.88
65175;BME280;51761;42.126;24.752;2023-05-22T06:09:07;99349.47;;;18.35;96.65
65175;BME280;51761;42.126;24.752;2023-05-22T06:11:34;99326.31;;;18.45;94.36
65175;BME280;51761;42.126;24.752;2023-05-22T06:14:00;99341.84;;;18.64;95.74
65175;BME280;51761;42.126;24.752;2023-05-22T06:16:29;99354.41;;;18.87;92.05
65175;BME280;51761;42.126;24.752;2023-05-22T06:18:57;99359.63;;;19.17;89.54
65175;BME280;51761;42.126;24.752;2023-05-22T06:21:23;99366.56;;;19.45;91.64
65175;BME280;51761;42.126;24.752;2023-05-22T06:23:49;99357.06;;;19.62;88.98
65175;BME280;51761;42.126;24.752;2023-05-22T06:26:15;99356.47;;;19.73;86.92
65175;BME280;51761;42.126;24.752;2023-05-22T06:28:41;99354.69;;;20.04;90.77
65175;BME280;51761;42.126;24.752;2023-05-22T06:31:06;99353.50;;;20.31;87.23
65175;BME280;51761;42.126;24.752;2023-05-22T06:33:37;99342.19;;;20.51;84.94
65175;BME280;51761;42.126;24.752;2023-05-22T06:36:05;99358.06;;;20.83;87.24
65175;BME280;51761;42.126;24.752;2023-05-22T06:38:31;99360.00;;;21.16;79.90
65175;BME280;51761;42.126;24.752;2023-05-22T06:40:57;99352.25;;;21.17;76.66
65175;BME280;51761;42.126;24.752;2023-05-22T06:43:22;99362.78;;;21.36;75.27
65175;BME280;51761;42.126;24.752;2023-05-22T06:45:48;99368.63;;;21.53;71.86
65175;BME280;51761;42.126;24.752;2023-05-22T06:48:14;99362.56;;;21.65;70.64
65175;BME280;51761;42.126;24.752;2023-05-22T06:50:39;99374.03;;;22.13;66.86
65175;BME280;51761;42.126;24.752;2023-05-22T06:53:05;99370.81;;;22.36;66.35
65175;BME280;51761;42.126;24.752;2023-05-22T06:55:30;99380.81;;;22.68;67.18
65175;BME280;51761;42.126;24.752;2023-05-22T06:57:56;99369.72;;;22.70;59.64
65175;BME280;51761;42.126;24.752;2023-05-22T07:00:21;99372.88;;;22.83;60.04
65175;BME280;51761;42.126;24.752;2023-05-22T07:02:48;99375.91;;;23.27;58.93
65175;BME280;51761;42.126;24.752;2023-05-22T07:05:14;99360.59;;;23.35;57.17
65175;BME280;51761;42.126;24.752;2023-05-22T07:07:39;99352.09;;;23.74;57.26
65175;BME280;51761;42.126;24.752;2023-05-22T07:10:05;99373.34;;;24.17;55.72
65175;BME280;51761;42.126;24.752;2023-05-22T07:12:31;99371.56;;;25.44;47.94
65175;BME280;51761;42.126;24.752;2023-05-22T07:14:57;99378.91;;;26.57;45.30
65175;BME280;51761;42.126;24.752;2023-05-22T07:17:24;99378.13;;;27.41;44.54
65175;BME280;51761;42.126;24.752;2023-05-22T07:19:50;99363.22;;;28.37;40.45
65175;BME280;51761;42.126;24.752;2023-05-22T07:22:16;99377.19;;;28.85;38.09
65175;BME280;51761;42.126;24.752;2023-05-22T07:24:41;99380.81;;;28.72;37.50
65175;BME280;51761;42.126;24.752;2023-05-22T07:27:07;99363.88;;;27.85;39.01
65175;BME280;51761;42.126;24.752;2023-05-22T07:29:33;99365.69;;;27.52;40.71
65175;BME280;51761;42.126;24.752;2023-05-22T07:31:59;99364.53;;;27.42;39.92
65175;BME280;51761;42.126;24.752;2023-05-22T07:34:24;99381.81;;;27.73;39.33
65175;BME280;51761;42.126;24.752;2023-05-22T07:36:56;99378.25;;;28.30;39.85
65175;BME280;51761;42.126;24.752;2023-05-22T07:39:22;99381.91;;;28.43;37.63
65175;BME280;51761;42.126;24.752;2023-05-22T07:41:48;99384.28;;;28.13;39.14
65175;BME280;51761;42.126;24.752;2023-05-22T07:44:16;99392.75;;;27.56;40.38
65175;BME280;51761;42.126;24.752;2023-05-22T07:46:42;99386.94;;;27.62;41.02
65175;BME280;51761;42.126;24.752;2023-05-22T07:49:07;99325.22;;;27.55;37.25
65175;BME280;51761;42.126;24.752;2023-05-22T07:51:33;99389.72;;;27.49;36.74
65175;BME280;51761;42.126;24.752;2023-05-22T07:53:58;99381.66;;;26.68;38.21
65175;BME280;51761;42.126;24.752;2023-05-22T07:56:24;99382.72;;;26.65;37.76
65175;BME280;51761;42.126;24.752;2023-05-22T07:58:51;99382.44;;;26.68;38.33
65175;BME280;51761;42.126;24.752;2023-05-22T08:01:17;99379.34;;;26.66;37.30
65175;BME280;51761;42.126;24.752;2023-05-22T08:03:42;99377.69;;;26.95;36.98
65175;BME280;51761;42.126;24.752;2023-05-22T08:06:08;99386.13;;;27.06;36.63
65175;BME280;51761;42.126;24.752;2023-05-22T08:08:34;99338.47;;;26.84;36.99
65175;BME280;51761;42.126;24.752;2023-05-22T08:10:59;99387.31;;;27.34;37.52
65175;BME280;51761;42.126;24.752;2023-05-22T08:13:25;99385.69;;;27.75;39.29
65175;BME280;51761;42.126;24.752;2023-05-22T08:15:50;99373.69;;;27.90;37.60
65175;BME280;51761;42.126;24.752;2023-05-22T08:18:16;99386.78;;;27.36;41.67
65175;BME280;51761;42.126;24.752;2023-05-22T08:20:42;99377.78;;;27.08;37.61
65175;BME280;51761;42.126;24.752;2023-05-22T08:23:07;99381.28;;;27.38;38.29
65175;BME280;51761;42.126;24.752;2023-05-22T08:25:33;99380.34;;;27.48;36.67
65175;BME280;51761;42.126;24.752;2023-05-22T08:27:58;99388.88;;;27.54;36.11
65175;BME280;51761;42.126;24.752;2023-05-22T08:30:24;99382.56;;;28.36;35.02
65175;BME280;51761;42.126;24.752;2023-05-22T08:32:49;99374.09;;;29.42;34.73
65175;BME280;51761;42.126;24.752;2023-05-22T08:35:15;99372.69;;;30.02;34.03
65175;BME280;51761;42.126;24.752;2023-05-22T08:37:40;99364.81;;;30.51;32.97
65175;BME280;51761;42.126;24.752;2023-05-22T08:40:09;99369.94;;;30.45;31.95
65175;BME280;51761;42.126;24.752;2023-05-22T08:42:36;99366.47;;;29.98;33.52
65175;BME280;51761;42.126;24.752;2023-05-22T08:45:03;99352.28;;;30.00;34.64
65175;BME280;51761;42.126;24.752;2023-05-22T08:47:30;99355.63;;;29.91;32.66
65175;BME280;51761;42.126;24.752;2023-05-22T08:49:58;99368.25;;;30.22;33.87
65175;BME280;51761;42.126;24.752;2023-05-22T08:52:46;99376.50;;;30.46;32.14
65175;BME280;51761;42.126;24.752;2023-05-22T08:55:14;99374.84;;;29.55;33.66
65175;BME280;51761;42.126;24.752;2023-05-22T08:57:41;99379.06;;;28.69;34.35
65175;BME280;51761;42.126;24.752;2023-05-22T09:00:07;99381.25;;;28.63;34.62
65175;BME280;51761;42.126;24.752;2023-05-22T09:02:33;99368.41;;;29.16;34.37
65175;BME280;51761;42.126;24.752;2023-05-22T09:05:00;99361.50;;;29.45;35.65
65175;BME280;51761;42.126;24.752;2023-05-22T09:07:26;99369.88;;;29.56;34.79
65175;BME280;51761;42.126;24.752;2023-05-22T09:09:54;99355.59;;;30.25;33.81
65175;BME280;51761;42.126;24.752;2023-05-22T09:12:20;99339.03;;;30.18;35.41
65175;BME280;51761;42.126;24.752;2023-05-22T09:14:46;99361.78;;;30.08;32.90
65175;BME280;51761;42.126;24.752;2023-05-22T09:17:14;99346.13;;;30.17;33.25
65175;BME280;51761;42.126;24.752;2023-05-22T09:19:44;99367.53;;;30.29;36.13
65175;BME280;51761;42.126;24.752;2023-05-22T09:22:12;99363.19;;;30.15;33.55
65175;BME280;51761;42.126;24.752;2023-05-22T09:24:40;99370.31;;;29.01;34.92
65175;BME280;51761;42.126;24.752;2023-05-22T09:27:10;99362.59;;;29.42;33.48
65175;BME280;51761;42.126;24.752;2023-05-22T09:29:50;99339.69;;;28.51;34.74
65175;BME280;51761;42.126;24.752;2023-05-22T09:32:17;99357.75;;;28.20;35.15
65175;BME280;51761;42.126;24.752;2023-05-22T09:34:43;99350.19;;;27.42;36.91
65175;BME280;51761;42.126;24.752;2023-05-22T09:37:11;99361.97;;;27.57;35.50
65175;BME280;51761;42.126;24.752;2023-05-22T09:39:46;99355.72;;;28.02;37.73
65175;BME280;51761;42.126;24.752;2023-05-22T09:42:15;99370.50;;;27.25;36.87
65175;BME280;51761;42.126;24.752;2023-05-22T09:44:47;99350.38;;;26.46;38.93
65175;BME280;51761;42.126;24.752;2023-05-22T09:47:12;99321.75;;;26.22;40.09
65175;BME280;51761;42.126;24.752;2023-05-22T09:49:42;99347.50;;;26.22;37.84
65175;BME280;51761;42.126;24.752;2023-05-22T09:52:09;99350.75;;;26.79;37.95
65175;BME280;51761;42.126;24.752;2023-05-22T09:54:46;99351.31;;;26.78;37.41
65175;BME280;51761;42.126;24.752;2023-05-22T09:57:16;99353.09;;;26.81;39.32
65175;BME280;51761;42.126;24.752;2023-05-22T09:59:50;99347.84;;;27.03;38.65
65175;BME280;51761;42.126;24.752;2023-05-22T10:02:22;99331.09;;;26.70;37.92
65175;BME280;51761;42.126;24.752;2023-05-22T10:04:48;99324.75;;;26.77;37.73
65175;BME280;51761;42.126;24.752;2023-05-22T10:07:25;99335.41;;;27.38;36.64
65175;BME280;51761;42.126;24.752;2023-05-22T10:09:58;99344.63;;;27.31;37.16
65175;BME280;51761;42.126;24.752;2023-05-22T10:12:27;99336.03;;;27.31;38.39
65175;BME280;51761;42.126;24.752;2023-05-22T10:14:57;99296.47;;;27.42;35.94
65175;BME280;51761;42.126;24.752;2023-05-22T10:17:24;99329.59;;;28.19;35.90
65175;BME280;51761;42.126;24.752;2023-05-22T10:19:52;99301.66;;;28.19;35.14
65175;BME280;51761;42.126;24.752;2023-05-22T10:22:19;99330.38;;;28.19;34.77
65175;BME280;51761;42.126;24.752;2023-05-22T10:24:50;99332.84;;;27.84;34.99
65175;BME280;51761;42.126;24.752;2023-05-22T10:27:17;99307.50;;;27.20;34.71
65175;BME280;51761;42.126;24.752;2023-05-22T10:30:01;99333.69;;;27.29;34.91
65175;BME280;51761;42.126;24.752;2023-05-22T10:41:16;99321.97;;;28.21;33.79
65175;BME280;51761;42.126;24.752;2023-05-22T10:43:43;99313.69;;;28.18;33.97
65175;BME280;51761;42.126;24.752;2023-05-22T10:46:11;99299.81;;;27.46;34.77
65175;BME280;51761;42.126;24.752;2023-05-22T10:48:38;99318.06;;;27.12;34.15
65175;BME280;51761;42.126;24.752;2023-05-22T10:51:05;99316.78;;;26.89;34.75
65175;BME280;51761;42.126;24.752;2023-05-22T10:53:31;99308.63;;;26.56;34.76
65175;BME280;51761;42.126;24.752;2023-05-22T10:56:50;99305.00;;;26.31;36.23
65175;BME280;51761;42.126;24.752;2023-05-22T10:58:59;99287.38;;;26.22;36.91
65175;BME280;51761;42.126;24.752;2023-05-22T11:01:29;99271.41;;;26.08;36.24
65175;BME280;51761;42.126;24.752;2023-05-22T11:03:57;99297.53;;;26.23;nan
65175;BME280;51761;42.126;24.752;2023-05-22T11:06:36;99284.75;;;26.00;35.46
65175;BME280;51761;42.126;24.752;2023-05-22T11:12:19;99283.88;;;26.58;35.97
65175;BME280;51761;42.126;24.752;2023-05-22T11:15:05;99271.66;;;26.95;34.03
65175;BME280;51761;42.126;24.752;2023-05-22T11:17:38;99284.25;;;27.05;34.11
65175;BME280;51761;42.126;24.752;2023-05-22T11:22:43;99267.09;;;27.67;33.18
65175;BME280;51761;42.126;24.752;2023-05-22T11:25:16;99262.75;;;27.61;33.84
65175;BME280;51761;42.126;24.752;2023-05-22T11:27:43;99266.56;;;27.38;32.81
65175;BME280;51761;42.126;24.752;2023-05-22T11:30:09;99272.50;;;27.27;33.44
65175;BME280;51761;42.126;24.752;2023-05-22T11:32:36;99253.25;;;27.22;33.95
65175;BME280;51761;42.126;24.752;2023-05-22T11:35:02;99267.50;;;27.59;34.67
65175;BME280;51761;42.126;24.752;2023-05-22T11:37:30;99268.56;;;27.74;35.08
65175;BME280;51761;42.126;24.752;2023-05-22T11:39:57;99288.47;;;27.54;35.67
65175;BME280;51761;42.126;24.752;2023-05-22T11:42:23;99289.91;;;27.29;34.28
65175;BME280;51761;42.126;24.752;2023-05-22T11:44:49;99319.34;;;26.74;36.92
65175;BME280;51761;42.126;24.752;2023-05-22T11:47:15;99320.06;;;25.84;43.28
65175;BME280;51761;42.126;24.752;2023-05-22T11:49:41;99316.50;;;24.97;48.40
65175;BME280;51761;42.126;24.752;2023-05-22T11:52:08;99314.09;;;24.55;50.13
65175;BME280;51761;42.126;24.752;2023-05-22T11:54:33;99295.56;;;24.00;53.24
65175;BME280;51761;42.126;24.752;2023-05-22T11:56:59;99316.81;;;23.77;55.30
65175;BME280;51761;42.126;24.752;2023-05-22T11:59:25;99311.91;;;23.61;58.55
65175;BME280;51761;42.126;24.752;2023-05-22T12:01:51;99285.72;;;23.18;61.61
65175;BME280;51761;42.126;24.752;2023-05-22T12:04:16;99307.84;;;22.65;64.06
65175;BME280;51761;42.126;24.752;2023-05-22T12:06:43;99309.19;;;22.80;61.11
65175;BME280;51761;42.126;24.752;2023-05-22T12:09:08;99299.34;;;22.76;60.86
65175;BME280;51761;42.126;24.752;2023-05-22T12:11:35;99283.44;;;22.48;60.08
65175;BME280;51761;42.126;24.752;2023-05-22T12:14:04;99270.19;;;22.34;58.53
65175;BME280;51761;42.126;24.752;2023-05-22T12:16:34;99298.97;;;22.47;59.95
65175;BME280;51761;42.126;24.752;2023-05-22T12:19:07;99293.03;;;22.50;57.04
65175;BME280;51761;42.126;24.752;2023-05-22T12:21:33;99289.47;;;22.60;58.92
65175;BME280;51761;42.126;24.752;2023-05-22T12:24:04;99292.34;;;22.77;57.53
65175;BME280;51761;42.126;24.752;2023-05-22T12:26:34;99288.50;;;22.85;58.71
65175;BME280;51761;42.126;24.752;2023-05-22T12:29:01;99288.50;;;22.96;59.95
65175;BME280;51761;42.126;24.752;2023-05-22T12:31:29;99288.75;;;22.93;57.73
65175;BME280;51761;42.126;24.752;2023-05-22T12:33:57;99285.63;;;22.80;58.47
65175;BME280;51761;42.126;24.752;2023-05-22T12:36:52;99281.50;;;22.81;58.86
65175;BME280;51761;42.126;24.752;2023-05-22T12:39:17;99274.53;;;23.09;59.40
65175;BME280;51761;42.126;24.752;2023-05-22T12:41:44;99278.72;;;23.25;56.08
65175;BME280;51761;42.126;24.752;2023-05-22T12:44:10;99266.03;;;23.48;55.63
65175;BME280;51761;42.126;24.752;2023-05-22T12:46:37;99282.59;;;23.77;55.63
65175;BME280;51761;42.126;24.752;2023-05-22T12:49:02;99243.75;;;23.85;55.74
65175;BME280;51761;42.126;24.752;2023-05-22T12:51:30;99268.38;;;23.88;54.74
65175;BME280;51761;42.126;24.752;2023-05-22T12:53:59;99262.69;;;23.55;56.00
65175;BME280;51761;42.126;24.752;2023-05-22T12:56:26;99265.78;;;23.51;55.31
65175;BME280;51761;42.126;24.752;2023-05-22T12:58:51;99275.09;;;23.35;54.70
65175;BME280;51761;42.126;24.752;2023-05-22T13:01:17;99265.00;;;23.84;55.04
65175;BME280;51761;42.126;24.752;2023-05-22T13:03:43;99259.66;;;24.31;53.24
65175;BME280;51761;42.126;24.752;2023-05-22T13:06:08;99274.41;;;24.46;51.94
65175;BME280;51761;42.126;24.752;2023-05-22T13:08:34;99250.34;;;24.25;52.07
65175;BME280;51761;42.126;24.752;2023-05-22T13:10:59;99268.66;;;24.57;53.46
65175;BME280;51761;42.126;24.752;2023-05-22T13:13:25;99252.34;;;24.52;49.53
65175;BME280;51761;42.126;24.752;2023-05-22T13:15:51;99271.28;;;24.44;50.23
65175;BME280;51761;42.126;24.752;2023-05-22T13:18:17;99265.84;;;24.41;49.06